createdAt,value
2017-08-26T00:01:12.466Z,86.81
2017-08-26T00:03:40.078Z,86.59
2017-08-26T00:06:07.687Z,86.69
2017-08-26T00:08:35.314Z,86.79
2017-08-26T00:11:02.899Z,86.85
2017-08-26T00:13:30.590Z,87.06
2017-08-26T00:15:58.222Z,87.27
2017-08-26T00:18:25.858Z,87.49
2017-08-26T00:20:53.443Z,87.62
2017-08-26T00:23:21.410Z,87.82
2017-08-26T00:25:49.006Z,87.78
2017-08-26T00:28:16.593Z,87.54
2017-08-26T00:30:44.242Z,87.46
2017-08-26T00:33:11.852Z,87.46
2017-08-26T00:35:39.500Z,87.53
2017-08-26T00:38:07.143Z,87.80
2017-08-26T00:40:34.807Z,87.84
2017-08-26T00:43:08.230Z,87.78
2017-08-26T00:45:35.999Z,87.79
2017-08-26T00:48:03.595Z,87.69
2017-08-26T00:50:31.212Z,87.88
2017-08-26T00:52:58.846Z,87.96
2017-08-26T00:55:26.447Z,88.10
2017-08-26T00:57:54.087Z,88.03
2017-08-26T01:00:21.672Z,88.21
2017-08-26T01:02:49.318Z,88.13
2017-08-26T01:05:16.914Z,87.78
2017-08-26T01:07:44.717Z,87.87
2017-08-26T01:10:12.318Z,87.87
2017-08-26T01:12:40.179Z,87.85
2017-08-26T01:15:07.759Z,87.93
2017-08-26T01:17:35.427Z,87.96
2017-08-26T01:20:03.098Z,87.82
2017-08-26T01:22:30.703Z,87.93
2017-08-26T01:24:58.388Z,88.19
2017-08-26T01:27:26.014Z,88.51
2017-08-26T01:29:53.662Z,88.75
2017-08-26T01:32:21.307Z,88.95
2017-08-26T01:34:48.958Z,89.20
2017-08-26T01:37:16.549Z,89.34
2017-08-26T01:39:44.280Z,89.05
2017-08-26T01:42:11.907Z,88.78
2017-08-26T01:44:39.507Z,88.42
2017-08-26T01:47:07.140Z,87.69
2017-08-26T01:49:34.728Z,87.46
2017-08-26T01:52:02.375Z,87.12
2017-08-26T01:54:30.162Z,87.01
2017-08-26T01:56:57.970Z,87.27
2017-08-26T01:59:25.576Z,87.55
2017-08-26T02:01:53.162Z,87.75
2017-08-26T02:04:20.903Z,87.57
2017-08-26T02:06:48.543Z,87.23
2017-08-26T02:09:16.173Z,86.91
2017-08-26T02:11:43.765Z,86.99
2017-08-26T02:14:11.394Z,87.53
2017-08-26T02:16:39.025Z,87.75
2017-08-26T02:19:06.778Z,88.03
2017-08-26T02:21:34.383Z,88.38
2017-08-26T02:24:02.134Z,88.61
2017-08-26T02:26:29.739Z,88.70
2017-08-26T02:28:57.400Z,88.80
2017-08-26T02:31:25.058Z,89.50
2017-08-26T02:33:52.644Z,89.86
2017-08-26T02:36:20.292Z,89.84
2017-08-26T02:38:47.893Z,89.72
2017-08-26T02:41:15.545Z,89.77
2017-08-26T02:43:43.142Z,90.02
2017-08-26T02:46:10.828Z,90.13
2017-08-26T02:48:38.538Z,90.06
2017-08-26T02:51:06.481Z,89.92
2017-08-26T02:53:34.101Z,89.69
2017-08-26T02:56:01.700Z,89.38
2017-08-26T02:58:29.336Z,89.16
2017-08-26T03:00:56.936Z,89.15
2017-08-26T03:03:24.584Z,88.99
2017-08-26T03:05:52.191Z,88.88
2017-08-26T03:08:19.939Z,89.03
2017-08-26T03:10:47.535Z,89.47
2017-08-26T03:13:15.123Z,89.94
2017-08-26T03:15:42.755Z,90.05
2017-08-26T03:18:10.379Z,90.08
2017-08-26T03:20:38.029Z,90.24
2017-08-26T03:23:05.622Z,90.31
2017-08-26T03:25:33.380Z,90.48
2017-08-26T03:28:00.982Z,90.50
2017-08-26T03:30:28.695Z,90.06
2017-08-26T03:32:56.306Z,90.36
2017-08-26T03:35:24.347Z,90.91
2017-08-26T03:37:51.939Z,90.76
2017-08-26T03:40:19.547Z,90.33
2017-08-26T03:42:47.194Z,90.34
2017-08-26T03:45:14.798Z,90.20
2017-08-26T03:47:42.486Z,89.92
2017-08-26T03:50:10.097Z,89.98
2017-08-26T03:52:37.734Z,89.97
2017-08-26T03:55:05.330Z,90.27
2017-08-26T03:57:32.971Z,90.06
2017-08-26T04:00:00.619Z,90.39
2017-08-26T04:02:28.264Z,90.37
2017-08-26T04:04:55.934Z,89.99
2017-08-26T04:07:23.562Z,89.95
2017-08-26T04:09:51.166Z,89.79
2017-08-26T04:12:18.756Z,89.78
2017-08-26T04:14:46.527Z,89.68
2017-08-26T04:17:14.126Z,89.75
2017-08-26T04:19:41.796Z,89.71
2017-08-26T04:22:09.402Z,89.83
2017-08-26T04:24:37.046Z,89.56
2017-08-26T04:27:04.661Z,89.70
2017-08-26T04:29:32.314Z,89.81
2017-08-26T04:31:59.946Z,89.52
2017-08-26T04:34:27.673Z,89.24
2017-08-26T04:36:55.279Z,89.31
2017-08-26T04:39:22.914Z,89.05
2017-08-26T04:41:50.518Z,88.65
2017-08-26T04:44:18.160Z,88.49
2017-08-26T04:46:45.783Z,88.50
2017-08-26T04:49:13.530Z,88.75
2017-08-26T04:51:41.256Z,89.01
2017-08-26T04:54:08.883Z,89.20
2017-08-26T04:56:36.510Z,89.24
2017-08-26T04:59:04.115Z,89.16
2017-08-26T05:01:31.727Z,89.21
2017-08-26T05:03:59.311Z,89.28
2017-08-26T05:06:27.031Z,89.14
2017-08-26T05:08:54.666Z,89.17
2017-08-26T05:11:22.346Z,89.46
2017-08-26T05:13:49.926Z,89.41
2017-08-26T05:16:17.718Z,89.32
2017-08-26T05:18:45.422Z,89.33
2017-08-26T05:21:13.038Z,89.34
2017-08-26T05:23:40.854Z,89.49
2017-08-26T05:26:08.451Z,89.56
2017-08-26T05:28:36.045Z,89.49
2017-08-26T05:31:03.798Z,89.64
2017-08-26T05:33:31.435Z,90.02
2017-08-26T05:35:59.071Z,90.16
2017-08-26T05:38:26.710Z,90.46
2017-08-26T05:40:54.307Z,90.36
2017-08-26T05:43:21.932Z,90.24
2017-08-26T05:45:49.542Z,90.24
2017-08-26T05:48:17.492Z,90.08
2017-08-26T05:50:45.082Z,90.18
2017-08-26T05:53:12.671Z,90.81
2017-08-26T05:55:40.374Z,90.70
2017-08-26T05:58:07.974Z,90.42
2017-08-26T06:00:35.607Z,90.30
2017-08-26T06:03:03.362Z,90.16
2017-08-26T06:05:30.993Z,89.74
2017-08-26T06:07:58.589Z,89.49
2017-08-26T06:10:26.223Z,89.30
2017-08-26T06:12:53.839Z,89.13
2017-08-26T06:15:21.576Z,89.10
2017-08-26T06:17:49.167Z,89.13
2017-08-26T06:20:16.759Z,89.38
2017-08-26T06:22:44.426Z,89.25
2017-08-26T06:25:12.027Z,89.49
2017-08-26T06:27:39.665Z,89.35
2017-08-26T06:30:07.258Z,89.59
2017-08-26T06:32:34.886Z,89.62
2017-08-26T06:35:02.483Z,89.67
2017-08-26T06:37:30.114Z,89.71
2017-08-26T06:39:57.735Z,89.33
2017-08-26T06:42:25.851Z,89.05
2017-08-26T06:44:53.467Z,89.00
2017-08-26T06:47:21.071Z,89.11
2017-08-26T06:49:48.706Z,89.14
2017-08-26T06:52:16.366Z,89.00
2017-08-26T06:54:43.990Z,88.83
2017-08-26T06:57:11.576Z,88.58
2017-08-26T06:59:39.230Z,88.41
2017-08-26T07:02:06.821Z,88.50
2017-08-26T07:04:34.541Z,88.19
2017-08-26T07:07:02.139Z,88.18
2017-08-26T07:09:29.930Z,88.42
2017-08-26T07:11:57.538Z,87.89
2017-08-26T07:14:25.371Z,88.68
2017-08-26T07:16:53.286Z,88.50
2017-08-26T07:19:20.922Z,87.98
2017-08-26T07:21:48.662Z,87.91
2017-08-26T07:24:16.315Z,88.06
2017-08-26T07:26:43.946Z,87.80
2017-08-26T07:29:11.591Z,87.59
2017-08-26T07:31:39.195Z,87.76
2017-08-26T07:34:07.242Z,87.51
2017-08-26T07:36:34.878Z,87.57
2017-08-26T07:39:02.507Z,87.65
2017-08-26T07:41:30.254Z,87.32
2017-08-26T07:43:58.000Z,87.59
2017-08-26T07:46:25.626Z,87.38
2017-08-26T07:48:53.288Z,87.33
2017-08-26T07:51:20.883Z,87.50
2017-08-26T07:53:48.491Z,87.39
2017-08-26T07:56:16.110Z,87.19
2017-08-26T07:58:43.727Z,87.26
2017-08-26T08:01:11.369Z,87.04
2017-08-26T08:03:38.999Z,87.06
2017-08-26T08:06:06.628Z,87.02
2017-08-26T08:08:34.248Z,87.19
2017-08-26T08:11:01.866Z,87.30
2017-08-26T08:13:29.465Z,87.22
2017-08-26T08:15:57.090Z,87.16
2017-08-26T08:18:24.701Z,87.22
2017-08-26T08:20:52.339Z,87.08
2017-08-26T08:23:19.942Z,86.84
2017-08-26T08:25:47.599Z,86.38
2017-08-26T08:28:15.230Z,87.00
2017-08-26T08:30:42.839Z,86.35
2017-08-26T08:33:10.466Z,86.02
2017-08-26T08:35:38.074Z,85.68
2017-08-26T08:38:05.711Z,84.51
2017-08-26T08:40:33.338Z,84.73
2017-08-26T08:43:00.971Z,84.49
2017-08-26T08:45:28.580Z,83.33
2017-08-26T08:47:56.216Z,83.60
2017-08-26T08:50:23.968Z,84.79
2017-08-26T08:52:51.594Z,84.81
2017-08-26T08:55:19.217Z,85.23
2017-08-26T08:57:46.871Z,84.87
2017-08-26T09:00:14.471Z,85.44
2017-08-26T09:02:42.134Z,84.46
2017-08-26T09:05:09.833Z,84.34
2017-08-26T09:07:37.470Z,84.01
2017-08-26T09:10:05.219Z,83.70
2017-08-26T09:12:32.896Z,83.71
2017-08-26T09:15:00.524Z,83.19
2017-08-26T09:17:28.158Z,82.87
2017-08-26T09:19:55.761Z,82.35
2017-08-26T09:22:23.429Z,82.70
2017-08-26T09:24:51.031Z,82.82
2017-08-26T09:27:18.694Z,82.55
2017-08-26T09:29:46.427Z,82.33
2017-08-26T09:32:14.026Z,82.67
2017-08-26T09:34:41.874Z,82.45
2017-08-26T09:37:09.458Z,82.11
2017-08-26T09:39:37.093Z,81.27
2017-08-26T09:42:04.699Z,81.21
2017-08-26T09:44:32.350Z,80.76
2017-08-26T09:46:59.954Z,80.57
2017-08-26T09:49:27.606Z,80.63
2017-08-26T09:51:55.203Z,80.82
2017-08-26T09:54:23.319Z,80.08
2017-08-26T09:56:50.914Z,79.71
2017-08-26T09:59:18.539Z,79.97
2017-08-26T10:01:46.145Z,79.16
2017-08-26T10:04:13.783Z,79.08
2017-08-26T10:06:41.367Z,78.10
2017-08-26T10:09:09.201Z,77.57
2017-08-26T10:11:36.799Z,77.87
2017-08-26T10:14:04.427Z,78.41
2017-08-26T10:16:32.113Z,77.42
2017-08-26T10:18:59.754Z,77.51
2017-08-26T10:21:27.361Z,77.36
2017-08-26T10:23:55.023Z,78.20
2017-08-26T10:26:22.638Z,77.26
2017-08-26T10:28:50.279Z,77.44
2017-08-26T10:31:17.946Z,77.46
2017-08-26T10:33:45.539Z,77.38
2017-08-26T10:36:13.149Z,77.27
2017-08-26T10:38:42.531Z,76.90
2017-08-26T10:41:10.127Z,76.93
2017-08-26T10:43:37.754Z,76.73
2017-08-26T10:46:05.355Z,77.04
2017-08-26T10:48:33.124Z,76.19
2017-08-26T10:51:00.735Z,75.30
2017-08-26T10:53:28.354Z,75.61
2017-08-26T10:55:56.090Z,74.82
2017-08-26T10:58:23.748Z,73.37
2017-08-26T11:00:51.350Z,72.85
2017-08-26T11:03:18.963Z,72.58
2017-08-26T11:05:46.598Z,72.16
2017-08-26T11:08:14.230Z,71.76
2017-08-26T11:10:41.871Z,71.00
2017-08-26T11:13:09.474Z,70.61
2017-08-26T11:15:37.111Z,70.35
2017-08-26T11:18:04.712Z,69.91
2017-08-26T11:20:32.344Z,70.59
2017-08-26T11:22:59.971Z,70.89
2017-08-26T11:25:27.618Z,70.94
2017-08-26T11:27:55.211Z,71.08
2017-08-26T11:30:22.860Z,71.76
2017-08-26T11:32:50.459Z,71.73
2017-08-26T11:35:18.153Z,70.46
2017-08-26T11:37:45.753Z,71.14
2017-08-26T11:40:13.386Z,70.46
2017-08-26T11:42:40.996Z,69.21
2017-08-26T11:45:08.670Z,65.80
2017-08-26T11:47:36.269Z,64.96
2017-08-26T11:50:03.938Z,64.03
2017-08-26T11:52:31.576Z,63.46
2017-08-26T11:54:59.355Z,63.83
2017-08-26T11:57:26.970Z,63.83
2017-08-26T11:59:54.594Z,63.84
2017-08-26T12:02:22.196Z,63.85
2017-08-26T12:04:49.852Z,62.95
2017-08-26T12:07:17.464Z,63.20
2017-08-26T12:09:45.215Z,63.43
2017-08-26T12:12:12.902Z,62.32
2017-08-26T12:14:40.562Z,61.70
2017-08-26T12:17:08.217Z,60.68
2017-08-26T12:19:35.818Z,60.79
2017-08-26T12:22:03.465Z,59.88
2017-08-26T12:24:31.090Z,59.77
2017-08-26T12:26:58.767Z,59.77
2017-08-26T12:29:26.366Z,59.82
2017-08-26T12:31:54.010Z,59.61
2017-08-26T12:34:21.638Z,59.23
2017-08-26T12:36:49.287Z,56.92
2017-08-26T12:39:16.906Z,58.23
2017-08-26T12:41:44.552Z,58.24
2017-08-26T12:44:12.153Z,59.61
2017-08-26T12:46:39.900Z,60.05
2017-08-26T12:49:07.510Z,59.45
2017-08-26T12:51:35.142Z,59.20
2017-08-26T12:54:02.766Z,59.66
2017-08-26T12:56:30.401Z,59.42
2017-08-26T12:58:58.030Z,59.20
2017-08-26T13:01:25.654Z,59.13
2017-08-26T13:03:53.275Z,59.58
2017-08-26T13:06:20.907Z,59.39
2017-08-26T13:08:48.516Z,59.08
2017-08-26T13:11:16.167Z,58.72
2017-08-26T13:13:43.758Z,59.20
2017-08-26T13:16:11.393Z,58.86
2017-08-26T13:18:38.987Z,58.50
2017-08-26T13:21:06.645Z,57.69
2017-08-26T13:23:34.238Z,57.81
2017-08-26T13:26:01.903Z,57.60
2017-08-26T13:28:29.500Z,56.54
2017-08-26T13:30:57.198Z,56.30
2017-08-26T13:33:24.807Z,56.28
2017-08-26T13:35:52.485Z,56.34
2017-08-26T13:38:20.099Z,56.42
2017-08-26T13:40:47.738Z,57.08
2017-08-26T13:43:15.345Z,56.11
2017-08-26T13:45:43.238Z,57.82
2017-08-26T13:48:10.888Z,58.71
2017-08-26T13:50:38.484Z,59.47
2017-08-26T13:53:06.126Z,59.55
2017-08-26T13:55:33.726Z,59.56
2017-08-26T13:58:01.359Z,58.47
2017-08-26T14:00:28.953Z,58.95
2017-08-26T14:02:56.592Z,59.26
2017-08-26T14:05:24.191Z,59.26
2017-08-26T14:07:51.867Z,58.89
2017-08-26T14:10:19.491Z,59.14
2017-08-26T14:12:47.162Z,58.38
2017-08-26T14:15:14.776Z,58.39
2017-08-26T14:17:42.583Z,58.18
2017-08-26T14:20:10.182Z,57.32
2017-08-26T14:22:37.823Z,57.69
2017-08-26T14:25:05.434Z,58.52
2017-08-26T14:27:33.056Z,57.80
2017-08-26T14:30:00.664Z,56.64
2017-08-26T14:32:28.311Z,57.01
2017-08-26T14:34:55.930Z,57.87
2017-08-26T14:37:23.626Z,56.06
2017-08-26T14:39:51.237Z,55.99
2017-08-26T14:42:19.099Z,55.76
2017-08-26T14:44:46.686Z,55.61
2017-08-26T14:47:14.310Z,55.77
2017-08-26T14:49:41.922Z,54.20
2017-08-26T14:52:09.556Z,53.64
2017-08-26T14:54:37.168Z,53.40
2017-08-26T14:57:04.822Z,52.74
2017-08-26T14:59:32.450Z,52.88
2017-08-26T15:02:00.088Z,53.14
2017-08-26T15:04:27.698Z,52.91
2017-08-26T15:06:55.344Z,51.96
2017-08-26T15:09:23.005Z,52.54
2017-08-26T15:11:50.618Z,53.15
2017-08-26T15:14:18.243Z,52.45
2017-08-26T15:16:45.863Z,52.06
2017-08-26T15:19:13.486Z,52.87
2017-08-26T15:21:41.087Z,53.64
2017-08-26T15:24:08.746Z,53.52
2017-08-26T15:26:36.342Z,54.31
2017-08-26T15:29:03.983Z,53.82
2017-08-26T15:31:31.641Z,53.36
2017-08-26T15:33:59.264Z,53.11
2017-08-26T15:36:27.040Z,53.45
2017-08-26T15:38:54.666Z,53.19
2017-08-26T15:41:22.274Z,52.72
2017-08-26T15:43:49.907Z,53.00
2017-08-26T15:46:17.491Z,53.54
2017-08-26T15:48:45.194Z,53.65
2017-08-26T15:51:12.818Z,53.54
2017-08-26T15:53:40.450Z,54.05
2017-08-26T15:56:08.043Z,53.48
2017-08-26T15:58:35.637Z,54.07
2017-08-26T16:01:03.271Z,54.21
2017-08-26T16:03:30.857Z,53.28
2017-08-26T16:05:58.475Z,53.94
2017-08-26T16:08:26.083Z,54.71
2017-08-26T16:10:53.713Z,53.50
2017-08-26T16:13:21.304Z,52.99
2017-08-26T16:15:48.927Z,52.87
2017-08-26T16:18:16.531Z,52.31
2017-08-26T16:20:44.186Z,51.81
2017-08-26T16:23:11.838Z,51.21
2017-08-26T16:25:39.597Z,50.55
2017-08-26T16:28:07.199Z,51.27
2017-08-26T16:30:34.911Z,51.16
2017-08-26T16:33:02.511Z,51.38
2017-08-26T16:35:30.164Z,51.15
2017-08-26T16:37:57.770Z,51.52
2017-08-26T16:40:25.402Z,51.23
2017-08-26T16:42:52.999Z,51.06
2017-08-26T16:45:20.614Z,50.58
2017-08-26T16:47:48.359Z,50.75
2017-08-26T16:50:16.035Z,50.78
2017-08-26T16:52:43.638Z,50.60
2017-08-26T16:55:11.262Z,50.83
2017-08-26T16:57:39.018Z,51.05
2017-08-26T17:00:06.682Z,51.16
2017-08-26T17:02:34.318Z,50.72
2017-08-26T17:05:01.933Z,51.33
2017-08-26T17:07:29.560Z,52.17
2017-08-26T17:09:57.163Z,51.94
2017-08-26T17:12:24.806Z,51.56
2017-08-26T17:14:52.460Z,51.32
2017-08-26T17:17:20.049Z,51.67
2017-08-26T17:19:47.680Z,51.97
2017-08-26T17:22:15.278Z,51.76
2017-08-26T17:24:42.914Z,52.43
2017-08-26T17:27:10.578Z,52.10
2017-08-26T17:29:38.198Z,52.29
2017-08-26T17:32:05.799Z,52.12
2017-08-26T17:34:33.506Z,52.30
2017-08-26T17:37:01.105Z,52.02
2017-08-26T17:39:28.743Z,52.50
2017-08-26T17:41:56.514Z,52.51
2017-08-26T17:44:24.175Z,53.26
2017-08-26T17:46:51.770Z,53.30
2017-08-26T17:49:19.414Z,53.75
2017-08-26T17:51:47.010Z,53.88
2017-08-26T17:54:14.630Z,54.05
2017-08-26T17:56:42.240Z,54.37
2017-08-26T17:59:09.870Z,54.84
2017-08-26T18:01:37.472Z,54.34
2017-08-26T18:04:05.119Z,54.38
2017-08-26T18:06:32.715Z,54.79
2017-08-26T18:09:00.319Z,55.10
2017-08-26T18:11:27.966Z,55.22
2017-08-26T18:13:55.623Z,55.00
2017-08-26T18:16:23.342Z,55.26
2017-08-26T18:18:50.961Z,55.33
2017-08-26T18:21:18.596Z,55.64
2017-08-26T18:23:46.192Z,54.76
2017-08-26T18:26:13.847Z,54.43
2017-08-26T18:28:41.475Z,54.59
2017-08-26T18:31:09.087Z,54.40
2017-08-26T18:33:36.714Z,55.03
2017-08-26T18:36:04.376Z,55.45
2017-08-26T18:38:31.978Z,54.05
2017-08-26T18:40:59.623Z,57.30
2017-08-26T18:43:27.259Z,53.81
2017-08-26T21:40:05.544Z,66.70
2017-08-26T21:42:33.142Z,66.82
2017-08-26T21:45:00.930Z,66.14
2017-08-26T21:47:29.256Z,66.26
2017-08-26T21:49:57.118Z,66.58
2017-08-26T21:52:25.083Z,66.74
2017-08-26T21:54:52.951Z,66.83
2017-08-26T21:57:20.921Z,66.74
2017-08-26T21:59:49.095Z,66.50
2017-08-26T22:02:17.167Z,66.61
2017-08-26T22:04:45.133Z,66.74
2017-08-26T22:07:12.859Z,67.34
2017-08-26T22:09:40.482Z,67.15
2017-08-26T22:12:08.132Z,66.87
2017-08-26T22:14:35.755Z,67.19
2017-08-26T22:17:03.399Z,66.78
2017-08-26T22:19:31.020Z,66.75
2017-08-26T22:21:58.668Z,66.73
2017-08-26T22:24:26.267Z,66.82
2017-08-26T22:26:53.886Z,66.52
2017-08-26T22:29:21.480Z,66.70
2017-08-26T22:31:49.125Z,67.17
2017-08-26T22:34:16.731Z,67.70
2017-08-26T22:36:44.408Z,67.61
2017-08-26T22:39:12.003Z,67.37
2017-08-26T22:41:39.659Z,67.27
2017-08-26T22:44:07.271Z,66.27
2017-08-26T22:46:34.901Z,67.10
2017-08-26T22:49:02.554Z,67.99
2017-08-26T22:51:30.205Z,69.69
2017-08-26T22:53:57.961Z,69.60
2017-08-26T22:56:25.565Z,69.92
2017-08-26T22:58:53.362Z,69.65
2017-08-26T23:01:20.989Z,69.58
2017-08-26T23:03:48.631Z,69.56
2017-08-26T23:06:16.259Z,69.60
2017-08-26T23:08:43.878Z,69.41
2017-08-26T23:11:11.514Z,70.05
2017-08-26T23:13:39.118Z,70.29
2017-08-26T23:16:06.743Z,70.20
2017-08-26T23:18:34.343Z,70.40
2017-08-26T23:21:02.006Z,71.14
2017-08-26T23:23:29.649Z,71.33
2017-08-26T23:25:57.310Z,71.45
2017-08-26T23:28:24.921Z,71.46
2017-08-26T23:30:52.538Z,71.88
2017-08-26T23:33:20.278Z,71.87
2017-08-26T23:35:47.908Z,72.23
2017-08-26T23:38:15.528Z,72.09
2017-08-26T23:40:43.158Z,71.82
2017-08-26T23:43:10.761Z,72.07
2017-08-26T23:45:38.406Z,72.52
2017-08-26T23:48:06.027Z,71.82
2017-08-26T23:50:33.730Z,72.29
2017-08-26T23:53:01.507Z,72.17
2017-08-26T23:55:29.138Z,72.53
2017-08-26T23:57:56.751Z,72.91
